createdAt,value
2022-10-21T00:00:15.642Z,99391.56
2022-10-21T00:00:47.083Z,99383.84
2022-10-21T00:01:18.606Z,99389.81
2022-10-21T00:01:50.085Z,99389.63
2022-10-21T00:02:21.492Z,99386.25
2022-10-21T00:02:52.860Z,99386.25
2022-10-21T00:03:24.263Z,99379.19
2022-10-21T00:03:55.655Z,99381.59
2022-10-21T00:04:27.050Z,99387.06
2022-10-21T00:04:58.437Z,99380.44
2022-10-21T00:05:29.841Z,99377.75
2022-10-21T00:06:01.272Z,99381.47
2022-10-21T00:06:32.704Z,99382.94
2022-10-21T00:07:04.120Z,99381.63
2022-10-21T00:07:35.511Z,99384.84
2022-10-21T00:08:06.925Z,99378.91
2022-10-21T00:08:38.443Z,99383.88
2022-10-21T00:09:09.937Z,99380.50
2022-10-21T00:09:41.465Z,99379.06
2022-10-21T00:10:12.843Z,99377.63
2022-10-21T00:10:44.286Z,99375.69
2022-10-21T00:11:15.700Z,99370.38
2022-10-21T00:11:47.143Z,99372.78
2022-10-21T00:12:18.607Z,99373.91
2022-10-21T00:12:49.980Z,99378.25
2022-10-21T00:13:21.408Z,99370.38
2022-10-21T00:13:52.804Z,99370.69
2022-10-21T00:14:24.198Z,99364.59
2022-10-21T00:14:57.264Z,99366.84
2022-10-21T00:15:28.929Z,99371.31
2022-10-21T00:16:00.319Z,99366.66
2022-10-21T00:16:31.798Z,99376.13
2022-10-21T00:17:03.320Z,99368.59
2022-10-21T00:17:34.756Z,99366.97
2022-10-21T00:18:06.223Z,99366.81
2022-10-21T00:18:37.627Z,99368.09
2022-10-21T00:19:09.094Z,99360.69
2022-10-21T00:19:40.556Z,99371.81
2022-10-21T00:20:12.094Z,99366.50
2022-10-21T00:20:43.530Z,99358.31
2022-10-21T00:21:15.021Z,99366.03
2022-10-21T00:21:46.505Z,99355.41
2022-10-21T00:22:18.044Z,99359.56
2022-10-21T00:22:49.481Z,99345.59
2022-10-21T00:23:20.914Z,99350.59
2022-10-21T00:23:52.444Z,99350.09
2022-10-21T00:24:23.852Z,99351.06
2022-10-21T00:24:55.228Z,99346.38
2022-10-21T00:25:26.648Z,99342.38
2022-10-21T00:25:58.001Z,99340.28
2022-10-21T00:26:29.374Z,99349.28
2022-10-21T00:27:00.796Z,99343.03
2022-10-21T00:27:32.267Z,99349.28
2022-10-21T00:28:03.662Z,99347.84
2022-10-21T00:28:35.076Z,99339.78
2022-10-21T00:29:06.551Z,99331.13
2022-10-21T00:29:37.958Z,99337.09
2022-10-21T00:30:09.415Z,99333.38
2022-10-21T00:30:40.804Z,99343.03
2022-10-21T00:31:12.223Z,99337.38
2022-10-21T00:31:43.634Z,99339.78
2022-10-21T00:32:15.038Z,99332.41
2022-10-21T00:32:46.572Z,99339.63
2022-10-21T00:33:17.921Z,99336.41
2022-10-21T00:33:49.321Z,99334.16
2022-10-21T00:34:20.727Z,99336.09
2022-10-21T00:34:52.096Z,99335.31
2022-10-21T00:35:23.588Z,99331.28
2022-10-21T00:35:55.009Z,99336.09
2022-10-21T00:36:26.431Z,99342.06
2022-10-21T00:36:57.997Z,99326.94
2022-10-21T00:37:29.493Z,99329.84
2022-10-21T00:38:01.092Z,99332.41
2022-10-21T00:38:32.491Z,99330.75
2022-10-21T00:39:03.999Z,99331.25
2022-10-21T00:39:35.398Z,99333.66
2022-10-21T00:40:06.794Z,99333.66
2022-10-21T00:40:38.187Z,99320.31
2022-10-21T00:41:09.576Z,99322.41
2022-10-21T00:41:40.989Z,99328.84
2022-10-21T00:42:12.401Z,99323.38
2022-10-21T00:42:46.643Z,99331.09
2022-10-21T00:43:18.686Z,99321.59
2022-10-21T00:43:50.100Z,99327.84
2022-10-21T00:44:21.521Z,99318.53
2022-10-21T00:44:52.939Z,99324.97
2022-10-21T00:45:24.371Z,99323.22
2022-10-21T00:45:55.799Z,99330.94
2022-10-21T00:46:27.293Z,99327.72
2022-10-21T00:46:58.704Z,99318.38
2022-10-21T00:47:30.130Z,99328.69
2022-10-21T00:48:01.601Z,99324.19
2022-10-21T00:48:33.142Z,99320.16
2022-10-21T00:49:04.579Z,99318.88
2022-10-21T00:49:35.977Z,99324.50
2022-10-21T00:50:07.483Z,99320.00
2022-10-21T00:50:41.779Z,99321.91
2022-10-21T00:51:14.150Z,99316.78
2022-10-21T00:51:45.554Z,99316.13
2022-10-21T00:52:16.944Z,99311.47
2022-10-21T00:52:48.382Z,99309.22
2022-10-21T00:53:19.883Z,99312.28
2022-10-21T00:53:51.329Z,99306.81
2022-10-21T00:54:22.739Z,99301.66
2022-10-21T00:54:54.141Z,99304.88
2022-10-21T00:55:25.605Z,99307.28
2022-10-21T00:55:57.032Z,99304.25
2022-10-21T00:56:28.460Z,99301.00
2022-10-21T00:56:59.879Z,99301.66
2022-10-21T00:57:31.292Z,99303.59
2022-10-21T00:58:02.737Z,99308.59
2022-10-21T00:58:34.223Z,99310.50
2022-10-21T00:59:05.668Z,99310.03
2022-10-21T00:59:37.054Z,99312.13
2022-10-21T01:00:08.470Z,99317.91
2022-10-21T01:00:39.983Z,99303.59
2022-10-21T01:01:11.755Z,99320.34
2022-10-21T01:01:43.292Z,99318.88
2022-10-21T01:02:14.715Z,99314.88
2022-10-21T01:02:46.144Z,99315.19
2022-10-21T01:03:17.589Z,99320.34
2022-10-21T01:03:49.069Z,99319.22
2022-10-21T01:04:20.491Z,99314.53
2022-10-21T01:04:51.928Z,99319.38
2022-10-21T01:05:23.403Z,99317.59
2022-10-21T01:05:54.774Z,99310.50
2022-10-21T01:06:26.180Z,99311.00
2022-10-21T01:06:57.677Z,99307.16
2022-10-21T01:07:29.106Z,99305.22
2022-10-21T01:08:00.536Z,99299.41
2022-10-21T01:08:31.995Z,99298.28
2022-10-21T01:09:03.586Z,99299.59
2022-10-21T01:09:35.090Z,99300.56
2022-10-21T01:10:06.529Z,99304.25
2022-10-21T01:10:37.958Z,99307.00
2022-10-21T01:11:09.380Z,99306.66
2022-10-21T01:11:40.810Z,99305.88
2022-10-21T01:12:12.241Z,99307.78
2022-10-21T01:12:43.708Z,99305.88
2022-10-21T01:13:15.099Z,99301.84
2022-10-21T01:13:46.508Z,99309.41
2022-10-21T01:14:17.931Z,99309.41
2022-10-21T01:14:49.540Z,99307.00
2022-10-21T01:15:21.025Z,99301.03
2022-10-21T01:15:52.498Z,99305.06
2022-10-21T01:16:24.360Z,99308.59
2022-10-21T01:16:55.934Z,99303.78
2022-10-21T01:17:43.754Z,99304.75
2022-10-21T01:18:15.811Z,99303.28
2022-10-21T01:18:47.221Z,99304.75
2022-10-21T01:19:18.667Z,99311.97
2022-10-21T01:19:50.120Z,99302.00
2022-10-21T01:20:21.526Z,99312.47
2022-10-21T01:20:53.022Z,99308.91
2022-10-21T01:21:24.441Z,99314.38
2022-10-21T01:21:55.922Z,99314.56
2022-10-21T01:22:27.419Z,99317.94
2022-10-21T01:22:58.820Z,99316.81
2022-10-21T01:23:30.321Z,99319.88
2022-10-21T01:24:01.765Z,99310.88
2022-10-21T01:24:33.222Z,99316.81
2022-10-21T01:25:04.659Z,99315.22
2022-10-21T01:25:36.085Z,99317.47
2022-10-21T01:26:07.577Z,99311.19
2022-10-21T01:26:38.983Z,99310.38
2022-10-21T01:27:10.435Z,99311.19
2022-10-21T01:27:41.947Z,99308.44
2022-10-21T01:28:13.391Z,99307.66
2022-10-21T01:28:44.856Z,99302.97
2022-10-21T01:29:16.349Z,99303.16
2022-10-21T01:29:47.734Z,99298.00
2022-10-21T01:30:19.160Z,99294.94
2022-10-21T01:30:50.594Z,99293.00
2022-10-21T01:31:22.022Z,99297.66
2022-10-21T01:31:53.438Z,99295.41
2022-10-21T01:32:24.928Z,99291.72
2022-10-21T01:32:56.422Z,99285.91
2022-10-21T01:33:27.943Z,99294.44
2022-10-21T01:33:59.368Z,99289.78
2022-10-21T01:34:30.837Z,99287.69
2022-10-21T01:35:02.243Z,99288.81
2022-10-21T01:35:33.719Z,99288.16
2022-10-21T01:36:05.192Z,99288.97
2022-10-21T01:36:36.672Z,99292.84
2022-10-21T01:37:08.181Z,99286.06
2022-10-21T01:37:39.933Z,99283.34
2022-10-21T01:38:11.744Z,99283.97
2022-10-21T01:38:43.186Z,99279.16
2022-10-21T01:39:14.619Z,99285.59
2022-10-21T01:39:46.022Z,99287.03
2022-10-21T01:40:17.470Z,99285.59
2022-10-21T01:40:48.875Z,99288.81
2022-10-21T01:41:20.372Z,99281.72
2022-10-21T01:41:51.821Z,99282.38
2022-10-21T01:42:23.300Z,99279.16
2022-10-21T01:42:54.704Z,99279.16
2022-10-21T01:43:26.291Z,99279.78
2022-10-21T01:43:57.636Z,99270.47
2022-10-21T01:44:29.238Z,99276.72
2022-10-21T01:45:00.646Z,99269.66
2022-10-21T01:45:32.055Z,99269.00
2022-10-21T01:46:03.608Z,99268.53
2022-10-21T01:46:34.990Z,99265.97
2022-10-21T01:47:06.423Z,99267.56
2022-10-21T01:47:37.828Z,99264.84
2022-10-21T01:48:09.352Z,99261.28
2022-10-21T01:48:40.925Z,99264.66
2022-10-21T01:49:12.331Z,99257.09
2022-10-21T01:49:43.778Z,99254.38
2022-10-21T01:50:15.150Z,99254.22
2022-10-21T01:50:46.594Z,99253.09
2022-10-21T01:51:18.037Z,99258.56
2022-10-21T01:51:49.459Z,99261.28
2022-10-21T01:52:20.894Z,99254.22
2022-10-21T01:52:52.265Z,99250.34
2022-10-21T01:53:23.714Z,99249.53
2022-10-21T01:53:55.175Z,99252.28
2022-10-21T01:54:26.555Z,99248.59
2022-10-21T01:54:58.004Z,99252.44
2022-10-21T01:55:29.404Z,99255.66
2022-10-21T01:56:00.847Z,99255.34
2022-10-21T01:56:32.336Z,99250.34
2022-10-21T01:57:03.730Z,99252.13
2022-10-21T01:57:35.258Z,99249.88
2022-10-21T01:58:06.647Z,99250.34
2022-10-21T01:58:38.036Z,99244.41
2022-10-21T01:59:09.473Z,99245.03
2022-10-21T01:59:40.862Z,99240.69
2022-10-21T02:00:12.332Z,99238.13
2022-10-21T02:00:43.760Z,99235.53
2022-10-21T02:01:15.259Z,99241.50
2022-10-21T02:01:46.720Z,99232.97
2022-10-21T02:02:18.103Z,99234.56
2022-10-21T02:02:49.617Z,99232.00
2022-10-21T02:03:21.129Z,99238.94
2022-10-21T02:03:52.586Z,99237.63
2022-10-21T02:04:24.268Z,99237.31
2022-10-21T02:04:55.713Z,99236.50
2022-10-21T02:05:27.121Z,99238.13
2022-10-21T02:05:58.603Z,99232.81
2022-10-21T02:06:30.008Z,99234.91
2022-10-21T02:07:01.444Z,99242.31
2022-10-21T02:07:32.898Z,99237.47
2022-10-21T02:08:04.311Z,99241.00
2022-10-21T02:08:35.764Z,99234.41
2022-10-21T02:09:07.258Z,99232.81
2022-10-21T02:09:38.769Z,99234.91
2022-10-21T02:10:10.259Z,99225.88
2022-10-21T02:10:41.655Z,99228.13
2022-10-21T02:11:13.116Z,99231.84
2022-10-21T02:11:44.522Z,99226.22
2022-10-21T02:12:16.001Z,99225.41
2022-10-21T02:12:47.452Z,99229.28
2022-10-21T02:13:18.854Z,99227.19
2022-10-21T02:13:50.252Z,99228.31
2022-10-21T02:14:21.705Z,99226.38
2022-10-21T02:14:53.257Z,99220.41
2022-10-21T02:15:24.705Z,99223.16
2022-10-21T02:15:56.143Z,99227.50
2022-10-21T02:16:27.543Z,99218.16
2022-10-21T02:16:58.970Z,99225.56
2022-10-21T02:17:30.409Z,99225.88
2022-10-21T02:18:01.927Z,99218.97
2022-10-21T02:18:33.429Z,99217.69
2022-10-21T02:19:04.832Z,99222.50
2022-10-21T02:19:36.280Z,99212.69
2022-10-21T02:20:07.720Z,99219.78
2022-10-21T02:20:39.162Z,99211.72
2022-10-21T02:21:10.555Z,99211.56
2022-10-21T02:21:41.948Z,99215.09
2022-10-21T02:22:13.363Z,99218.66
2022-10-21T02:22:44.839Z,99215.91
2022-10-21T02:23:16.264Z,99212.03
2022-10-21T02:23:47.669Z,99210.91
2022-10-21T02:24:19.084Z,99208.19
2022-10-21T02:24:50.546Z,99207.38
2022-10-21T02:25:22.077Z,99205.13
2022-10-21T02:25:53.546Z,99210.91
2022-10-21T02:26:24.991Z,99205.44
2022-10-21T02:26:56.426Z,99208.50
2022-10-21T02:27:27.879Z,99200.78
2022-10-21T02:27:59.321Z,99207.53
2022-10-21T02:28:30.803Z,99205.13
2022-10-21T02:29:02.353Z,99205.94
2022-10-21T02:29:33.772Z,99206.75
2022-10-21T02:30:05.217Z,99198.84
2022-10-21T02:30:36.709Z,99204.66
2022-10-21T02:31:08.126Z,99208.19
2022-10-21T02:31:39.545Z,99209.97
2022-10-21T02:32:10.947Z,99205.13
2022-10-21T02:32:42.349Z,99199.34
2022-10-21T02:33:13.843Z,99200.94
2022-10-21T02:33:45.300Z,99193.06
2022-10-21T02:34:16.735Z,99200.13
2022-10-21T02:34:48.179Z,99204.47
2022-10-21T02:35:19.618Z,99202.88
2022-10-21T02:35:51.121Z,99197.56
2022-10-21T02:36:22.569Z,99198.38
2022-10-21T02:36:53.999Z,99198.22
2022-10-21T02:37:25.457Z,99195.78
2022-10-21T02:37:56.912Z,99199.00
2022-10-21T02:38:28.544Z,99195.16
2022-10-21T02:39:00.031Z,99194.66
2022-10-21T02:39:31.532Z,99195.78
2022-10-21T02:40:02.960Z,99199.81
2022-10-21T02:40:34.434Z,99198.38
2022-10-21T02:41:05.983Z,99196.28
2022-10-21T02:41:37.574Z,99191.28
2022-10-21T02:42:08.998Z,99195.16
2022-10-21T02:42:40.660Z,99192.72
2022-10-21T02:43:12.329Z,99195.16
2022-10-21T02:43:43.766Z,99191.75
2022-10-21T02:44:15.178Z,99192.56
2022-10-21T02:44:46.660Z,99192.41
2022-10-21T02:45:18.079Z,99195.31
2022-10-21T02:45:49.531Z,99188.22
2022-10-21T02:46:21.119Z,99198.03
2022-10-21T02:46:52.600Z,99191.28
2022-10-21T02:47:23.996Z,99192.09
2022-10-21T02:47:55.380Z,99190.47
2022-10-21T02:48:26.797Z,99188.56
2022-10-21T02:48:58.287Z,99194.03
2022-10-21T02:49:29.697Z,99203.34
2022-10-21T02:50:01.112Z,99194.50
2022-10-21T02:50:32.526Z,99190.63
2022-10-21T02:51:03.983Z,99199.16
2022-10-21T02:51:35.464Z,99194.81
2022-10-21T02:52:06.955Z,99203.84
2022-10-21T02:52:38.385Z,99203.03
2022-10-21T02:53:09.907Z,99201.09
2022-10-21T02:53:41.483Z,99199.16
2022-10-21T02:54:12.960Z,99201.59
2022-10-21T02:54:44.429Z,99198.69
2022-10-21T02:55:15.869Z,99200.63
2022-10-21T02:55:47.329Z,99197.56
2022-10-21T02:56:18.756Z,99199.00
2022-10-21T02:56:50.359Z,99198.84
2022-10-21T02:57:21.818Z,99201.59
2022-10-21T02:57:53.230Z,99200.47
2022-10-21T02:58:24.698Z,99197.41
2022-10-21T02:58:56.099Z,99200.94
2022-10-21T02:59:27.584Z,99198.53
2022-10-21T02:59:58.983Z,99201.25
2022-10-21T03:00:32.812Z,99199.81
2022-10-21T03:01:04.599Z,99198.22
2022-10-21T03:01:36.027Z,99202.88
2022-10-21T03:02:07.542Z,99204.00
2022-10-21T03:02:38.940Z,99201.25
2022-10-21T03:03:10.312Z,99206.75
2022-10-21T03:03:41.798Z,99198.53
2022-10-21T03:04:13.186Z,99197.25
2022-10-21T03:04:44.615Z,99203.19
2022-10-21T03:05:16.056Z,99213.34
2022-10-21T03:05:47.417Z,99200.47
2022-10-21T03:06:18.833Z,99198.03
2022-10-21T03:06:50.202Z,99204.00
2022-10-21T03:07:21.619Z,99202.88
2022-10-21T03:07:53.014Z,99209.16
2022-10-21T03:08:24.438Z,99201.25
2022-10-21T03:08:55.974Z,99203.53
2022-10-21T03:09:27.378Z,99198.84
2022-10-21T03:09:58.790Z,99201.75
2022-10-21T03:10:30.277Z,99199.00
2022-10-21T03:11:01.677Z,99196.91
2022-10-21T03:11:33.189Z,99200.13
2022-10-21T03:12:04.542Z,99207.22
2022-10-21T03:12:35.936Z,99198.03
2022-10-21T03:13:07.365Z,99202.88
2022-10-21T03:13:38.782Z,99200.47
2022-10-21T03:14:10.275Z,99203.53
2022-10-21T03:14:41.675Z,99203.84
2022-10-21T03:15:13.070Z,99204.81
2022-10-21T03:15:44.473Z,99200.47
2022-10-21T03:16:15.995Z,99202.06
2022-10-21T03:16:47.452Z,99204.47
2022-10-21T03:17:21.598Z,99203.19
2022-10-21T03:17:55.872Z,99205.13
2022-10-21T03:18:27.391Z,99206.41
2022-10-21T03:18:58.801Z,99204.81
2022-10-21T03:19:30.240Z,99207.88
2022-10-21T03:20:01.625Z,99203.53
2022-10-21T03:20:33.052Z,99201.91
2022-10-21T03:21:04.453Z,99206.75
2022-10-21T03:21:35.876Z,99210.13
2022-10-21T03:22:07.274Z,99213.50
2022-10-21T03:22:38.743Z,99207.88
2022-10-21T03:23:10.181Z,99209.78
2022-10-21T03:23:41.627Z,99211.56
2022-10-21T03:24:24.915Z,99206.56
2022-10-21T03:24:59.778Z,99213.50
2022-10-21T03:25:35.293Z,99208.19
2022-10-21T03:26:07.079Z,99213.19
2022-10-21T03:26:38.540Z,99204.31
2022-10-21T03:27:10.034Z,99207.38
2022-10-21T03:27:41.453Z,99208.19
2022-10-21T03:28:12.828Z,99204.97
2022-10-21T03:28:44.264Z,99207.53
2022-10-21T03:29:15.743Z,99207.06
2022-10-21T03:29:47.227Z,99203.84
2022-10-21T03:30:18.738Z,99209.94
2022-10-21T03:30:50.207Z,99206.25
2022-10-21T03:31:21.592Z,99201.91
2022-10-21T03:31:52.984Z,99201.25
2022-10-21T03:32:24.451Z,99198.53
2022-10-21T03:32:55.856Z,99205.28
2022-10-21T03:33:27.308Z,99198.22
2022-10-21T03:33:58.771Z,99195.63
2022-10-21T03:34:30.250Z,99200.94
2022-10-21T03:35:01.671Z,99196.91
2022-10-21T03:35:33.190Z,99199.00
2022-10-21T03:36:04.595Z,99192.91
2022-10-21T03:36:36.117Z,99187.91
2022-10-21T03:37:07.545Z,99192.75
2022-10-21T03:37:39.093Z,99194.34
2022-10-21T03:38:10.546Z,99191.59
2022-10-21T03:38:41.947Z,99196.59
2022-10-21T03:39:13.349Z,99188.56
2022-10-21T03:39:44.721Z,99192.91
2022-10-21T03:40:16.143Z,99189.34
2022-10-21T03:40:47.633Z,99181.31
2022-10-21T03:41:19.032Z,99189.69
2022-10-21T03:41:50.411Z,99189.03
2022-10-21T03:42:21.791Z,99194.66
2022-10-21T03:42:53.280Z,99191.28
2022-10-21T03:43:24.677Z,99185.81
2022-10-21T03:43:56.118Z,99194.50
2022-10-21T03:44:27.537Z,99195.47
2022-10-21T03:44:59.001Z,99181.31
2022-10-21T03:45:30.379Z,99186.94
2022-10-21T03:46:01.923Z,99182.75
2022-10-21T03:46:33.373Z,99186.63
2022-10-21T03:47:04.745Z,99185.00
2022-10-21T03:47:36.225Z,99187.44
2022-10-21T03:48:07.637Z,99185.34
2022-10-21T03:48:39.047Z,99182.59
2022-10-21T03:49:18.287Z,99181.78
2022-10-21T03:49:52.629Z,99177.63
2022-10-21T03:50:26.579Z,99180.66
2022-10-21T03:50:58.446Z,99178.41
2022-10-21T03:51:30.197Z,99178.09
2022-10-21T03:52:01.648Z,99179.38
2022-10-21T03:52:33.112Z,99173.44
2022-10-21T03:53:13.882Z,99172.78
2022-10-21T03:53:55.602Z,99170.69
2022-10-21T03:54:27.029Z,99176.16
2022-10-21T03:54:58.445Z,99167.81
2022-10-21T03:55:29.853Z,99176.66
2022-10-21T03:56:01.292Z,99176.66
2022-10-21T03:56:32.746Z,99173.28
2022-10-21T03:57:04.246Z,99167.00
2022-10-21T03:57:35.746Z,99175.69
2022-10-21T03:58:07.213Z,99174.22
2022-10-21T03:58:38.645Z,99172.63
2022-10-21T03:59:10.068Z,99174.88
2022-10-21T03:59:41.478Z,99176.50
2022-10-21T04:00:44.213Z,99181.63
2022-10-21T04:01:15.769Z,99182.13
2022-10-21T04:01:47.323Z,99176.31
2022-10-21T04:02:18.774Z,99178.56
2022-10-21T04:02:50.212Z,99181.47
2022-10-21T04:03:21.598Z,99177.28
2022-10-21T04:03:52.990Z,99175.53
2022-10-21T04:04:24.434Z,99172.78
2022-10-21T04:04:55.845Z,99179.69
2022-10-21T04:05:27.228Z,99179.53
2022-10-21T04:05:58.681Z,99178.75
2022-10-21T04:06:30.162Z,99178.56
2022-10-21T04:07:01.614Z,99177.44
2022-10-21T04:07:33.083Z,99181.47
2022-10-21T04:08:04.567Z,99173.91
2022-10-21T04:08:36.063Z,99174.38
2022-10-21T04:09:07.520Z,99174.72
2022-10-21T04:09:39.079Z,99167.78
2022-10-21T04:10:10.558Z,99166.03
2022-10-21T04:10:42.099Z,99169.25
2022-10-21T04:11:13.592Z,99170.69
2022-10-21T04:11:44.990Z,99174.06
2022-10-21T04:12:16.403Z,99172.78
2022-10-21T04:12:47.836Z,99170.53
2022-10-21T04:13:19.274Z,99172.47
2022-10-21T04:13:50.844Z,99179.22
2022-10-21T04:14:22.277Z,99173.25
2022-10-21T04:14:53.755Z,99180.50
2022-10-21T04:15:25.308Z,99173.91
2022-10-21T04:15:56.779Z,99176.00
2022-10-21T04:16:28.177Z,99168.28
2022-10-21T04:17:06.758Z,99174.56
2022-10-21T04:17:38.969Z,99173.91
2022-10-21T04:18:10.424Z,99179.38
2022-10-21T04:18:41.934Z,99172.31
2022-10-21T04:19:13.550Z,99170.06
2022-10-21T04:19:44.973Z,99162.50
2022-10-21T04:20:16.399Z,99167.00
2022-10-21T04:20:47.821Z,99170.53
2022-10-21T04:21:19.318Z,99165.22
2022-10-21T04:21:50.837Z,99169.09
2022-10-21T04:22:22.250Z,99167.47
2022-10-21T04:22:53.712Z,99166.34
2022-10-21T04:23:25.178Z,99164.41
2022-10-21T04:23:56.626Z,99173.91
2022-10-21T04:24:28.111Z,99169.25
2022-10-21T04:25:01.003Z,99171.50
2022-10-21T04:25:35.462Z,99169.09
2022-10-21T04:26:06.919Z,99173.91
2022-10-21T04:26:38.346Z,99167.00
2022-10-21T04:27:09.794Z,99172.78
2022-10-21T04:27:41.205Z,99166.03
2022-10-21T04:28:12.599Z,99172.63
2022-10-21T04:28:44.056Z,99171.19
2022-10-21T04:29:15.595Z,99177.78
2022-10-21T04:29:47.029Z,99173.75
2022-10-21T04:30:18.457Z,99173.09
2022-10-21T04:30:49.872Z,99168.75
2022-10-21T04:31:21.280Z,99159.91
2022-10-21T04:31:52.768Z,99159.28
2022-10-21T04:32:24.253Z,99160.56
2022-10-21T04:32:55.672Z,99162.66
2022-10-21T04:33:27.067Z,99159.59
2022-10-21T04:33:58.554Z,99167.47
2022-10-21T04:34:30.014Z,99157.66
2022-10-21T04:35:01.476Z,99164.91
2022-10-21T04:35:32.924Z,99159.91
2022-10-21T04:36:04.424Z,99165.72
2022-10-21T04:36:35.927Z,99155.91
2022-10-21T04:37:07.324Z,99164.59
2022-10-21T04:37:38.747Z,99159.13
2022-10-21T04:38:10.205Z,99163.63
2022-10-21T04:38:41.594Z,99163.13
2022-10-21T04:39:13.026Z,99156.53
2022-10-21T04:39:44.568Z,99166.84
2022-10-21T04:40:15.970Z,99164.59
2022-10-21T04:40:47.396Z,99167.00
2022-10-21T04:41:18.843Z,99154.59
2022-10-21T04:41:50.207Z,99163.94
2022-10-21T04:42:21.636Z,99164.09
2022-10-21T04:42:53.199Z,99169.09
2022-10-21T04:43:24.637Z,99169.25
2022-10-21T04:43:56.157Z,99162.97
2022-10-21T04:44:27.637Z,99166.19
2022-10-21T04:44:59.184Z,99172.31
2022-10-21T04:45:30.563Z,99169.56
2022-10-21T04:46:02.045Z,99158.16
2022-10-21T04:46:33.450Z,99163.78
2022-10-21T04:47:04.883Z,99163.63
2022-10-21T04:47:36.499Z,99149.47
2022-10-21T04:48:08.209Z,99160.22
2022-10-21T04:48:39.704Z,99160.72
2022-10-21T04:49:11.273Z,99159.59
2022-10-21T04:49:42.703Z,99160.88
2022-10-21T04:50:14.299Z,99162.97
2022-10-21T04:50:45.723Z,99165.72
2022-10-21T04:51:17.109Z,99169.72
2022-10-21T04:51:48.679Z,99166.84
2022-10-21T04:52:20.107Z,99172.13
2022-10-21T04:52:51.541Z,99168.59
2022-10-21T04:53:22.932Z,99168.94
2022-10-21T04:53:54.503Z,99167.31
2022-10-21T04:54:25.942Z,99169.41
2022-10-21T04:54:57.350Z,99172.31
2022-10-21T04:55:28.838Z,99165.88
2022-10-21T04:56:00.317Z,99165.22
2022-10-21T04:56:31.724Z,99170.69
2022-10-21T04:57:03.142Z,99172.94
2022-10-21T04:57:34.601Z,99179.22
2022-10-21T04:58:06.063Z,99179.22
2022-10-21T04:58:37.569Z,99182.13
2022-10-21T04:59:09.023Z,99184.19
2022-10-21T04:59:40.437Z,99179.53
2022-10-21T05:00:11.893Z,99183.56
2022-10-21T05:00:43.551Z,99172.13
2022-10-21T05:01:15.135Z,99174.06
2022-10-21T05:01:46.594Z,99164.41
2022-10-21T05:02:20.486Z,99181.16
2022-10-21T05:02:54.437Z,99172.47
2022-10-21T05:03:25.901Z,99177.28
2022-10-21T05:03:57.320Z,99170.38
2022-10-21T05:04:28.703Z,99162.16
2022-10-21T05:05:00.235Z,99172.47
2022-10-21T05:05:31.652Z,99167.97
2022-10-21T05:06:03.219Z,99164.09
2022-10-21T05:06:34.636Z,99169.56
2022-10-21T05:07:06.222Z,99166.50
2022-10-21T05:07:37.624Z,99164.41
2022-10-21T05:08:11.548Z,99158.31
2022-10-21T05:08:43.380Z,99160.88
2022-10-21T05:09:14.869Z,99157.66
2022-10-21T05:09:46.355Z,99162.66
2022-10-21T05:10:17.736Z,99157.81
2022-10-21T05:10:49.134Z,99156.84
2022-10-21T05:11:20.553Z,99166.03
2022-10-21T05:11:51.979Z,99158.78
2022-10-21T05:12:23.433Z,99156.22
2022-10-21T05:12:54.924Z,99160.41
2022-10-21T05:13:26.388Z,99165.53
2022-10-21T05:13:57.839Z,99165.38
2022-10-21T05:14:29.274Z,99156.69
2022-10-21T05:15:00.732Z,99160.41
2022-10-21T05:15:32.194Z,99157.81
2022-10-21T05:16:03.684Z,99168.44
2022-10-21T05:16:35.125Z,99164.91
2022-10-21T05:17:06.533Z,99171.00
2022-10-21T05:17:38.211Z,99162.16
2022-10-21T05:18:09.741Z,99158.63
2022-10-21T05:18:41.132Z,99163.13
2022-10-21T05:19:12.544Z,99159.44
2022-10-21T05:19:43.971Z,99159.59
2022-10-21T05:20:15.358Z,99161.69
2022-10-21T05:20:46.754Z,99161.69
2022-10-21T05:21:18.168Z,99164.41
2022-10-21T05:21:49.579Z,99163.28
2022-10-21T05:22:21.018Z,99158.63
2022-10-21T05:22:52.421Z,99170.84
2022-10-21T05:23:23.877Z,99160.56
2022-10-21T05:23:55.356Z,99160.22
2022-10-21T05:24:26.796Z,99164.91
2022-10-21T05:24:58.225Z,99163.13
2022-10-21T05:25:31.822Z,99160.06
2022-10-21T05:26:05.827Z,99164.41
2022-10-21T05:26:37.395Z,99161.19
2022-10-21T05:27:09.093Z,99161.19
2022-10-21T05:27:40.654Z,99154.13
2022-10-21T05:28:12.273Z,99152.84
2022-10-21T05:28:43.715Z,99157.50
2022-10-21T05:29:15.210Z,99153.81
2022-10-21T05:29:46.659Z,99158.94
2022-10-21T05:30:18.045Z,99149.63
2022-10-21T05:30:49.556Z,99151.22
2022-10-21T05:31:21.133Z,99150.75
2022-10-21T05:31:52.690Z,99143.19
2022-10-21T05:32:24.137Z,99155.41
2022-10-21T05:32:55.750Z,99155.09
2022-10-21T05:33:27.218Z,99151.53
2022-10-21T05:33:58.733Z,99148.16
2022-10-21T05:34:30.205Z,99157.03
2022-10-21T05:35:01.702Z,99144.16
2022-10-21T05:35:33.175Z,99152.19
2022-10-21T05:36:04.598Z,99148.34
2022-10-21T05:36:36.024Z,99149.94
2022-10-21T05:37:07.402Z,99141.56
2022-10-21T05:37:38.870Z,99147.84
2022-10-21T05:38:10.268Z,99148.00
2022-10-21T05:38:41.733Z,99142.88
2022-10-21T05:39:13.166Z,99141.25
2022-10-21T05:39:44.568Z,99136.59
2022-10-21T05:40:16.015Z,99139.47
2022-10-21T05:40:47.421Z,99132.72
2022-10-21T05:41:18.883Z,99140.44
2022-10-21T05:41:50.309Z,99136.75
2022-10-21T05:42:21.773Z,99135.78
2022-10-21T05:42:53.220Z,99133.38
2022-10-21T05:43:24.638Z,99133.38
2022-10-21T05:43:56.179Z,99131.44
2022-10-21T05:44:27.612Z,99136.91
2022-10-21T05:44:58.984Z,99133.38
2022-10-21T05:45:30.419Z,99136.91
2022-10-21T05:46:01.799Z,99124.19
2022-10-21T05:46:33.187Z,99139.66
2022-10-21T05:47:04.557Z,99134.66
2022-10-21T05:47:36.008Z,99137.41
2022-10-21T05:48:07.470Z,99143.19
2022-10-21T05:48:38.982Z,99138.19
2022-10-21T05:49:10.476Z,99132.72
2022-10-21T05:49:41.870Z,99134.81
2022-10-21T05:50:13.345Z,99138.03
2022-10-21T05:50:44.749Z,99137.06
2022-10-21T05:51:16.347Z,99135.31
2022-10-21T05:51:47.799Z,99137.88
2022-10-21T05:52:19.202Z,99139.66
2022-10-21T05:52:50.657Z,99143.50
2022-10-21T05:53:22.159Z,99143.81
2022-10-21T05:53:53.651Z,99137.22
2022-10-21T05:54:25.247Z,99142.22
2022-10-21T05:54:56.690Z,99137.22
2022-10-21T05:55:28.186Z,99144.16
2022-10-21T05:55:59.626Z,99140.44
2022-10-21T05:56:31.024Z,99138.84
2022-10-21T05:57:02.504Z,99142.38
2022-10-21T05:57:33.965Z,99131.44
2022-10-21T05:58:05.374Z,99134.66
2022-10-21T05:58:36.796Z,99135.13
2022-10-21T05:59:10.138Z,99128.38
2022-10-21T05:59:41.961Z,99135.47
2022-10-21T06:00:13.395Z,99137.88
2022-10-21T06:00:44.962Z,99137.88
2022-10-21T06:01:16.473Z,99140.59
2022-10-21T06:01:47.942Z,99138.53
2022-10-21T06:02:19.361Z,99142.69
2022-10-21T06:02:50.736Z,99147.03
2022-10-21T06:03:22.319Z,99148.66
2022-10-21T06:03:53.713Z,99153.16
2022-10-21T06:04:25.143Z,99152.50
2022-10-21T06:04:56.688Z,99152.50
2022-10-21T06:05:28.129Z,99155.56
2022-10-21T06:05:59.564Z,99148.81
2022-10-21T06:06:31.066Z,99151.53
2022-10-21T06:07:02.590Z,99143.34
2022-10-21T06:07:33.977Z,99148.81
2022-10-21T06:08:05.438Z,99149.13
2022-10-21T06:08:36.913Z,99145.75
2022-10-21T06:09:08.479Z,99146.41
2022-10-21T06:09:39.925Z,99145.59
2022-10-21T06:10:11.406Z,99141.25
2022-10-21T06:10:42.829Z,99143.97
2022-10-21T06:11:14.270Z,99141.09
2022-10-21T06:11:45.738Z,99145.09